Terminal Aerodrome Forecast
Issued by NWS Wilmington, OH

Home | Current Version | Previous Version | Text Only | Print | Product List | Glossary On
Versions: 1 2 3 4 5 6 7 8 9 10 11 12 13 14 15 16 17 18 19 20
000
FTUS41 KILN 181737
TAFDAY
TAF
KDAY 181737Z 1818/1918 20020G35KT P6SM -SHRA OVC015 WS020/22055KT
     FM182100 22020G35KT 2SM +SHRA VCTS OVC012CB WS020/22055KT
      TEMPO 1821/1823 1SM +TSRA OVC008CB
     FM190000 31020G38KT 4SM -SHRA BR OVC012
     FM190400 31018G33KT P6SM OVC018
     FM191000 30014G24KT P6SM OVC022=

USA.gov is the U.S. government's official web portal to all federal, state and local government web resources and services.